sensor_id;sensor_type;location;lat;lon;timestamp;pressure;altitude;pressure_sealevel;temperature;humidity
28079;BME280;15388;42.238;24.684;2022-12-18T00:00:40;100069.13;;;7.99;100.00
28079;BME280;15388;42.238;24.684;2022-12-18T00:03:05;100069.88;;;8.01;100.00
28079;BME280;15388;42.238;24.684;2022-12-18T00:05:30;100073.69;;;7.97;100.00
28079;BME280;15388;42.238;24.684;2022-12-18T00:07:55;100083.63;;;8.06;100.00
28079;BME280;15388;42.238;24.684;2022-12-18T00:10:21;100082.78;;;8.19;100.00
28079;BME280;15388;42.238;24.684;2022-12-18T00:12:46;100085.94;;;8.37;100.00
28079;BME280;15388;42.238;24.684;2022-12-18T00:15:11;100100.78;;;8.52;100.00
28079;BME280;15388;42.238;24.684;2022-12-18T00:17:36;100090.16;;;8.65;100.00
28079;BME280;15388;42.238;24.684;2022-12-18T00:20:02;100089.47;;;8.75;100.00
28079;BME280;15388;42.238;24.684;2022-12-18T00:22:27;100100.41;;;8.83;100.00
28079;BME280;15388;42.238;24.684;2022-12-18T00:24:52;100107.91;;;8.89;100.00
28079;BME280;15388;42.238;24.684;2022-12-18T00:27:18;100102.81;;;8.86;100.00
28079;BME280;15388;42.238;24.684;2022-12-18T00:29:43;100095.53;;;9.01;100.00
28079;BME280;15388;42.238;24.684;2022-12-18T00:32:08;100109.22;;;9.08;100.00
28079;BME280;15388;42.238;24.684;2022-12-18T00:34:33;100124.41;;;9.06;100.00
28079;BME280;15388;42.238;24.684;2022-12-18T00:36:59;100126.16;;;8.94;100.00
28079;BME280;15388;42.238;24.684;2022-12-18T00:39:24;100126.31;;;9.04;100.00
28079;BME280;15388;42.238;24.684;2022-12-18T00:41:49;100140.13;;;9.09;100.00
28079;BME280;15388;42.238;24.684;2022-12-18T00:44:33;100148.81;;;9.11;100.00
28079;BME280;15388;42.238;24.684;2022-12-18T00:46:58;100148.81;;;9.11;100.00
28079;BME280;15388;42.238;24.684;2022-12-18T00:49:23;100143.28;;;9.14;100.00
28079;BME280;15388;42.238;24.684;2022-12-18T00:51:49;100143.28;;;9.14;100.00
28079;BME280;15388;42.238;24.684;2022-12-18T00:54:14;100139.22;;;9.22;100.00
28079;BME280;15388;42.238;24.684;2022-12-18T00:56:40;100131.78;;;9.27;100.00
28079;BME280;15388;42.238;24.684;2022-12-18T00:59:05;100131.66;;;9.28;100.00
28079;BME280;15388;42.238;24.684;2022-12-18T01:01:31;100132.25;;;9.32;100.00
28079;BME280;15388;42.238;24.684;2022-12-18T01:03:57;100147.00;;;9.36;100.00
28079;BME280;15388;42.238;24.684;2022-12-18T01:06:22;100145.94;;;9.39;100.00
28079;BME280;15388;42.238;24.684;2022-12-18T01:08:48;100143.41;;;9.37;100.00
28079;BME280;15388;42.238;24.684;2022-12-18T01:11:15;100140.34;;;9.06;100.00
28079;BME280;15388;42.238;24.684;2022-12-18T01:13:40;100147.13;;;9.10;100.00
28079;BME280;15388;42.238;24.684;2022-12-18T01:16:06;100143.91;;;9.18;100.00
28079;BME280;15388;42.238;24.684;2022-12-18T01:18:31;100154.22;;;8.85;100.00
28079;BME280;15388;42.238;24.684;2022-12-18T01:20:57;100146.53;;;8.94;100.00
28079;BME280;15388;42.238;24.684;2022-12-18T01:23:22;100156.50;;;9.03;100.00
28079;BME280;15388;42.238;24.684;2022-12-18T01:25:47;100146.25;;;9.10;100.00
28079;BME280;15388;42.238;24.684;2022-12-18T01:28:12;100161.16;;;9.12;100.00
28079;BME280;15388;42.238;24.684;2022-12-18T01:30:38;100151.34;;;9.13;100.00
28079;BME280;15388;42.238;24.684;2022-12-18T01:33:06;100157.31;;;9.16;100.00
28079;BME280;15388;42.238;24.684;2022-12-18T01:35:31;100163.13;;;9.22;100.00
28079;BME280;15388;42.238;24.684;2022-12-18T01:37:57;100159.25;;;9.01;100.00
28079;BME280;15388;42.238;24.684;2022-12-18T01:40:22;100155.22;;;8.71;100.00
28079;BME280;15388;42.238;24.684;2022-12-18T01:42:53;100161.66;;;8.80;100.00
28079;BME280;15388;42.238;24.684;2022-12-18T01:45:24;100157.84;;;8.84;100.00
28079;BME280;15388;42.238;24.684;2022-12-18T01:47:57;100159.09;;;8.91;100.00
28079;BME280;15388;42.238;24.684;2022-12-18T01:50:31;100158.41;;;9.01;100.00
28079;BME280;15388;42.238;24.684;2022-12-18T01:55:23;100162.72;;;8.90;100.00
28079;BME280;15388;42.238;24.684;2022-12-18T01:57:50;100155.03;;;8.99;100.00
28079;BME280;15388;42.238;24.684;2022-12-18T02:00:18;100161.81;;;9.03;100.00
28079;BME280;15388;42.238;24.684;2022-12-18T02:02:44;100166.78;;;9.08;100.00
28079;BME280;15388;42.238;24.684;2022-12-18T02:05:11;100177.81;;;9.14;100.00
28079;BME280;15388;42.238;24.684;2022-12-18T02:10:15;100175.16;;;9.14;100.00
28079;BME280;15388;42.238;24.684;2022-12-18T02:13:30;100174.72;;;9.21;100.00
28079;BME280;15388;42.238;24.684;2022-12-18T02:15:51;100181.53;;;9.12;100.00
28079;BME280;15388;42.238;24.684;2022-12-18T02:18:16;100176.09;;;8.89;100.00
28079;BME280;15388;42.238;24.684;2022-12-18T02:20:45;100174.91;;;8.93;100.00
28079;BME280;15388;42.238;24.684;2022-12-18T02:28:22;100180.78;;;8.72;100.00
28079;BME280;15388;42.238;24.684;2022-12-18T02:30:51;100179.19;;;8.70;100.00
28079;BME280;15388;42.238;24.684;2022-12-18T02:33:17;100181.06;;;8.81;100.00
28079;BME280;15388;42.238;24.684;2022-12-18T02:35:44;100177.13;;;8.86;100.00
28079;BME280;15388;42.238;24.684;2022-12-18T02:38:10;100177.44;;;8.95;100.00
28079;BME280;15388;42.238;24.684;2022-12-18T02:40:36;100171.69;;;9.01;100.00
28079;BME280;15388;42.238;24.684;2022-12-18T02:43:10;100179.44;;;9.04;100.00
28079;BME280;15388;42.238;24.684;2022-12-18T02:45:37;100169.13;;;9.12;100.00
28079;BME280;15388;42.238;24.684;2022-12-18T02:48:10;100174.94;;;9.17;100.00
28079;BME280;15388;42.238;24.684;2022-12-18T02:50:38;100178.22;;;9.21;100.00
28079;BME280;15388;42.238;24.684;2022-12-18T02:53:27;100176.91;;;9.27;100.00
28079;BME280;15388;42.238;24.684;2022-12-18T02:56:15;100180.19;;;9.30;100.00
28079;BME280;15388;42.238;24.684;2022-12-18T03:01:16;100182.84;;;9.30;100.00
28079;BME280;15388;42.238;24.684;2022-12-18T03:06:14;100176.22;;;9.36;100.00
28079;BME280;15388;42.238;24.684;2022-12-18T03:08:45;100180.59;;;9.37;100.00
28079;BME280;15388;42.238;24.684;2022-12-18T03:11:12;100187.50;;;9.40;100.00
28079;BME280;15388;42.238;24.684;2022-12-18T03:13:40;100184.84;;;9.40;100.00
28079;BME280;15388;42.238;24.684;2022-12-18T03:16:09;100190.97;;;9.40;100.00
28079;BME280;15388;42.238;24.684;2022-12-18T03:18:39;100187.38;;;9.41;100.00
28079;BME280;15388;42.238;24.684;2022-12-18T03:21:07;100187.38;;;9.41;100.00
28079;BME280;15388;42.238;24.684;2022-12-18T03:23:42;100179.53;;;9.40;100.00
28079;BME280;15388;42.238;24.684;2022-12-18T03:26:10;100186.53;;;9.41;100.00
28079;BME280;15388;42.238;24.684;2022-12-18T03:28:38;100185.91;;;9.37;100.00
28079;BME280;15388;42.238;24.684;2022-12-18T03:31:05;100194.81;;;9.36;100.00
28079;BME280;15388;42.238;24.684;2022-12-18T03:33:52;100196.41;;;9.39;100.00
28079;BME280;15388;42.238;24.684;2022-12-18T03:36:17;100195.16;;;9.32;100.00
28079;BME280;15388;42.238;24.684;2022-12-18T03:38:43;100208.31;;;9.33;100.00
28079;BME280;15388;42.238;24.684;2022-12-18T03:41:19;100216.28;;;9.33;100.00
28079;BME280;15388;42.238;24.684;2022-12-18T03:43:57;100218.22;;;9.31;100.00
28079;BME280;15388;42.238;24.684;2022-12-18T03:46:28;100224.41;;;9.18;100.00
28079;BME280;15388;42.238;24.684;2022-12-18T03:49:13;100231.25;;;9.10;100.00
28079;BME280;15388;42.238;24.684;2022-12-18T03:54:38;100231.38;;;8.95;100.00
28079;BME280;15388;42.238;24.684;2022-12-18T03:57:05;100235.53;;;8.86;100.00
28079;BME280;15388;42.238;24.684;2022-12-18T03:59:32;100242.56;;;8.74;100.00
28079;BME280;15388;42.238;24.684;2022-12-18T04:01:58;100237.16;;;8.76;100.00
28079;BME280;15388;42.238;24.684;2022-12-18T04:04:24;100247.44;;;8.68;100.00
28079;BME280;15388;42.238;24.684;2022-12-18T04:06:49;100249.59;;;8.62;100.00
28079;BME280;15388;42.238;24.684;2022-12-18T04:09:15;100257.84;;;8.71;100.00
28079;BME280;15388;42.238;24.684;2022-12-18T04:11:41;100261.56;;;8.68;100.00
28079;BME280;15388;42.238;24.684;2022-12-18T04:14:08;100267.09;;;8.65;100.00
28079;BME280;15388;42.238;24.684;2022-12-18T04:16:34;100265.19;;;8.54;100.00
28079;BME280;15388;42.238;24.684;2022-12-18T04:18:59;100276.31;;;8.59;100.00
28079;BME280;15388;42.238;24.684;2022-12-18T04:21:24;100278.56;;;8.65;100.00
28079;BME280;15388;42.238;24.684;2022-12-18T04:23:50;100274.53;;;8.73;100.00
28079;BME280;15388;42.238;24.684;2022-12-18T04:26:15;100280.78;;;8.72;100.00
28079;BME280;15388;42.238;24.684;2022-12-18T04:28:40;100291.63;;;8.69;100.00
28079;BME280;15388;42.238;24.684;2022-12-18T04:31:05;100286.50;;;8.52;100.00
28079;BME280;15388;42.238;24.684;2022-12-18T04:33:31;100282.97;;;8.52;100.00
28079;BME280;15388;42.238;24.684;2022-12-18T04:35:56;100270.56;;;8.52;100.00
28079;BME280;15388;42.238;24.684;2022-12-18T04:38:21;100279.56;;;8.50;100.00
28079;BME280;15388;42.238;24.684;2022-12-18T04:40:47;100279.03;;;8.45;100.00
28079;BME280;15388;42.238;24.684;2022-12-18T04:43:12;100278.84;;;8.48;100.00
28079;BME280;15388;42.238;24.684;2022-12-18T04:45:37;100284.88;;;8.50;100.00
28079;BME280;15388;42.238;24.684;2022-12-18T04:48:02;100287.31;;;8.53;100.00
28079;BME280;15388;42.238;24.684;2022-12-18T04:50:28;100292.00;;;8.49;100.00
28079;BME280;15388;42.238;24.684;2022-12-18T04:52:54;100301.31;;;8.42;100.00
28079;BME280;15388;42.238;24.684;2022-12-18T04:55:19;100300.66;;;8.38;100.00
28079;BME280;15388;42.238;24.684;2022-12-18T04:57:44;100295.38;;;8.38;100.00
28079;BME280;15388;42.238;24.684;2022-12-18T05:00:10;100308.72;;;8.24;100.00
28079;BME280;15388;42.238;24.684;2022-12-18T05:02:35;100307.31;;;8.18;100.00
28079;BME280;15388;42.238;24.684;2022-12-18T05:05:00;100313.72;;;8.28;100.00
28079;BME280;15388;42.238;24.684;2022-12-18T05:07:26;100311.91;;;8.29;100.00
28079;BME280;15388;42.238;24.684;2022-12-18T05:09:51;100316.06;;;8.33;100.00
28079;BME280;15388;42.238;24.684;2022-12-18T05:12:16;100320.19;;;8.37;100.00
28079;BME280;15388;42.238;24.684;2022-12-18T05:14:41;100327.19;;;8.38;100.00
28079;BME280;15388;42.238;24.684;2022-12-18T05:17:07;100337.06;;;8.36;100.00
28079;BME280;15388;42.238;24.684;2022-12-18T05:19:32;100342.91;;;8.41;100.00
28079;BME280;15388;42.238;24.684;2022-12-18T05:21:57;100339.53;;;8.39;100.00
28079;BME280;15388;42.238;24.684;2022-12-18T05:24:23;100348.63;;;8.35;100.00
28079;BME280;15388;42.238;24.684;2022-12-18T05:26:48;100350.13;;;8.39;100.00
28079;BME280;15388;42.238;24.684;2022-12-18T05:29:13;100366.06;;;8.39;100.00
28079;BME280;15388;42.238;24.684;2022-12-18T05:31:39;100368.13;;;8.34;100.00
28079;BME280;15388;42.238;24.684;2022-12-18T05:34:04;100369.63;;;8.38;100.00
28079;BME280;15388;42.238;24.684;2022-12-18T05:36:30;100362.84;;;8.34;100.00
28079;BME280;15388;42.238;24.684;2022-12-18T05:38:55;100373.25;;;8.37;100.00
28079;BME280;15388;42.238;24.684;2022-12-18T05:41:20;100367.53;;;8.44;100.00
28079;BME280;15388;42.238;24.684;2022-12-18T05:43:45;100376.44;;;8.43;100.00
28079;BME280;15388;42.238;24.684;2022-12-18T05:46:12;100380.91;;;8.42;100.00
28079;BME280;15388;42.238;24.684;2022-12-18T05:48:37;100389.16;;;8.37;100.00
28079;BME280;15388;42.238;24.684;2022-12-18T05:51:07;100390.47;;;8.45;100.00
28079;BME280;15388;42.238;24.684;2022-12-18T05:53:33;100395.97;;;8.41;100.00
28079;BME280;15388;42.238;24.684;2022-12-18T05:56:02;100398.22;;;8.48;100.00
28079;BME280;15388;42.238;24.684;2022-12-18T05:58:28;100399.47;;;8.42;100.00
28079;BME280;15388;42.238;24.684;2022-12-18T06:00:53;100405.41;;;8.46;100.00
28079;BME280;15388;42.238;24.684;2022-12-18T06:03:18;100395.31;;;8.38;100.00
28079;BME280;15388;42.238;24.684;2022-12-18T06:05:44;100408.50;;;8.39;100.00
28079;BME280;15388;42.238;24.684;2022-12-18T06:08:10;100409.22;;;8.41;100.00
28079;BME280;15388;42.238;24.684;2022-12-18T06:10:36;100414.34;;;8.45;100.00
28079;BME280;15388;42.238;24.684;2022-12-18T06:13:01;100416.56;;;8.38;100.00
28079;BME280;15388;42.238;24.684;2022-12-18T06:15:26;100425.34;;;8.38;100.00
28079;BME280;15388;42.238;24.684;2022-12-18T06:17:52;100424.59;;;8.36;100.00
28079;BME280;15388;42.238;24.684;2022-12-18T06:20:17;100432.19;;;8.28;100.00
28079;BME280;15388;42.238;24.684;2022-12-18T06:22:43;100425.00;;;8.30;100.00
28079;BME280;15388;42.238;24.684;2022-12-18T06:25:09;100437.50;;;8.28;100.00
28079;BME280;15388;42.238;24.684;2022-12-18T06:27:34;100439.59;;;8.23;100.00
28079;BME280;15388;42.238;24.684;2022-12-18T06:29:59;100437.91;;;8.22;100.00
28079;BME280;15388;42.238;24.684;2022-12-18T06:32:25;100451.63;;;8.28;100.00
28079;BME280;15388;42.238;24.684;2022-12-18T06:34:50;100452.09;;;8.21;100.00
28079;BME280;15388;42.238;24.684;2022-12-18T06:37:15;100460.16;;;8.19;100.00
28079;BME280;15388;42.238;24.684;2022-12-18T06:39:41;100453.63;;;8.25;100.00
28079;BME280;15388;42.238;24.684;2022-12-18T06:42:06;100457.22;;;8.24;100.00
28079;BME280;15388;42.238;24.684;2022-12-18T06:44:31;100470.38;;;8.25;100.00
28079;BME280;15388;42.238;24.684;2022-12-18T06:46:56;100473.31;;;8.21;100.00
28079;BME280;15388;42.238;24.684;2022-12-18T06:49:22;100467.81;;;8.24;100.00
28079;BME280;15388;42.238;24.684;2022-12-18T06:51:47;100474.84;;;8.25;100.00
28079;BME280;15388;42.238;24.684;2022-12-18T06:54:12;100483.94;;;8.21;100.00
28079;BME280;15388;42.238;24.684;2022-12-18T06:56:37;100490.53;;;8.28;100.00
28079;BME280;15388;42.238;24.684;2022-12-18T06:59:03;100490.53;;;8.28;100.00
28079;BME280;15388;42.238;24.684;2022-12-18T07:01:28;100497.75;;;8.26;100.00
28079;BME280;15388;42.238;24.684;2022-12-18T07:03:54;100492.44;;;8.26;100.00
28079;BME280;15388;42.238;24.684;2022-12-18T07:06:20;100499.25;;;8.30;100.00
28079;BME280;15388;42.238;24.684;2022-12-18T07:08:46;100498.19;;;8.33;100.00
28079;BME280;15388;42.238;24.684;2022-12-18T07:11:12;100505.53;;;8.29;100.00
28079;BME280;15388;42.238;24.684;2022-12-18T07:13:38;100506.25;;;8.31;100.00
28079;BME280;15388;42.238;24.684;2022-12-18T07:16:14;100510.50;;;8.34;100.00
28079;BME280;15388;42.238;24.684;2022-12-18T07:18:40;100511.56;;;8.31;100.00
28079;BME280;15388;42.238;24.684;2022-12-18T07:21:07;100518.09;;;8.40;100.00
28079;BME280;15388;42.238;24.684;2022-12-18T07:23:33;100515.63;;;8.37;100.00
28079;BME280;15388;42.238;24.684;2022-12-18T07:26:03;100527.09;;;8.37;100.00
28079;BME280;15388;42.238;24.684;2022-12-18T07:28:29;100528.78;;;8.38;100.00
28079;BME280;15388;42.238;24.684;2022-12-18T07:30:54;100538.91;;;8.46;100.00
28079;BME280;15388;42.238;24.684;2022-12-18T07:33:19;100531.34;;;8.40;100.00
28079;BME280;15388;42.238;24.684;2022-12-18T07:35:45;100528.22;;;8.48;100.00
28079;BME280;15388;42.238;24.684;2022-12-18T07:38:10;100530.56;;;8.52;100.00
28079;BME280;15388;42.238;24.684;2022-12-18T07:40:35;100543.56;;;8.57;100.00
28079;BME280;15388;42.238;24.684;2022-12-18T07:43:00;100542.00;;;8.53;100.00
28079;BME280;15388;42.238;24.684;2022-12-18T07:45:26;100547.31;;;8.53;100.00
28079;BME280;15388;42.238;24.684;2022-12-18T07:47:51;100551.91;;;8.51;100.00
28079;BME280;15388;42.238;24.684;2022-12-18T07:50:16;100547.50;;;8.50;100.00
28079;BME280;15388;42.238;24.684;2022-12-18T07:52:42;100549.25;;;8.51;100.00
28079;BME280;15388;42.238;24.684;2022-12-18T07:55:07;100550.94;;;8.52;100.00
28079;BME280;15388;42.238;24.684;2022-12-18T07:57:32;100555.22;;;8.54;100.00
28079;BME280;15388;42.238;24.684;2022-12-18T07:59:58;100565.63;;;8.58;100.00
28079;BME280;15388;42.238;24.684;2022-12-18T08:02:23;100569.44;;;8.53;100.00
28079;BME280;15388;42.238;24.684;2022-12-18T08:04:48;100569.34;;;8.55;100.00
28079;BME280;15388;42.238;24.684;2022-12-18T08:07:14;100569.88;;;8.60;100.00
28079;BME280;15388;42.238;24.684;2022-12-18T08:09:39;100577.75;;;8.62;100.00
28079;BME280;15388;42.238;24.684;2022-12-18T08:12:04;100581.47;;;8.59;100.00
28079;BME280;15388;42.238;24.684;2022-12-18T08:14:30;100570.38;;;8.67;100.00
28079;BME280;15388;42.238;24.684;2022-12-18T08:16:55;100583.31;;;8.72;100.00
28079;BME280;15388;42.238;24.684;2022-12-18T08:19:20;100589.38;;;8.74;100.00
28079;BME280;15388;42.238;24.684;2022-12-18T08:21:45;100583.97;;;8.75;100.00
28079;BME280;15388;42.238;24.684;2022-12-18T08:24:11;100581.81;;;8.68;100.00
28079;BME280;15388;42.238;24.684;2022-12-18T08:26:36;100581.63;;;8.71;100.00
28079;BME280;15388;42.238;24.684;2022-12-18T08:29:01;100590.91;;;8.78;100.00
28079;BME280;15388;42.238;24.684;2022-12-18T08:31:27;100587.69;;;8.73;100.00
28079;BME280;15388;42.238;24.684;2022-12-18T08:33:53;100587.28;;;8.79;100.00
28079;BME280;15388;42.238;24.684;2022-12-18T08:36:18;100589.75;;;8.82;100.00
28079;BME280;15388;42.238;24.684;2022-12-18T08:38:44;100587.84;;;8.84;100.00
28079;BME280;15388;42.238;24.684;2022-12-18T08:41:10;100589.25;;;8.90;100.00
28079;BME280;15388;42.238;24.684;2022-12-18T08:43:36;100588.03;;;8.81;100.00
28079;BME280;15388;42.238;24.684;2022-12-18T08:46:20;100593.41;;;8.94;100.00
28079;BME280;15388;42.238;24.684;2022-12-18T08:48:46;100589.75;;;8.82;100.00
28079;BME280;15388;42.238;24.684;2022-12-18T08:51:12;100587.09;;;8.82;100.00
28079;BME280;15388;42.238;24.684;2022-12-18T08:53:38;100591.25;;;8.86;100.00
28079;BME280;15388;42.238;24.684;2022-12-18T08:56:05;100587.09;;;8.82;100.00
28079;BME280;15388;42.238;24.684;2022-12-18T08:58:30;100584.03;;;8.88;100.00
28079;BME280;15388;42.238;24.684;2022-12-18T09:01:02;100584.22;;;8.85;100.00
28079;BME280;15388;42.238;24.684;2022-12-18T09:03:29;100583.66;;;8.95;100.00
28079;BME280;15388;42.238;24.684;2022-12-18T09:05:54;100581.53;;;9.00;100.00
28079;BME280;15388;42.238;24.684;2022-12-18T09:08:19;100584.19;;;9.00;100.00
28079;BME280;15388;42.238;24.684;2022-12-18T09:10:45;100592.38;;;9.10;100.00
28079;BME280;15388;42.238;24.684;2022-12-18T09:13:11;100591.16;;;9.15;100.00
28079;BME280;15388;42.238;24.684;2022-12-18T09:16:10;100592.84;;;9.16;100.00
28079;BME280;15388;42.238;24.684;2022-12-18T09:18:28;100591.59;;;9.22;100.00
28079;BME280;15388;42.238;24.684;2022-12-18T09:20:53;100593.94;;;9.27;100.00
28079;BME280;15388;42.238;24.684;2022-12-18T09:23:19;100590.44;;;9.26;100.00
28079;BME280;15388;42.238;24.684;2022-12-18T09:25:44;100599.78;;;9.32;100.00
28079;BME280;15388;42.238;24.684;2022-12-18T09:28:10;100600.13;;;9.40;100.00
28079;BME280;15388;42.238;24.684;2022-12-18T09:30:39;100587.81;;;9.39;100.00
28079;BME280;15388;42.238;24.684;2022-12-18T09:33:05;100582.28;;;9.42;100.00
28079;BME280;15388;42.238;24.684;2022-12-18T09:35:30;100587.50;;;9.57;100.00
28079;BME280;15388;42.238;24.684;2022-12-18T09:37:55;100584.84;;;9.57;100.00
28079;BME280;15388;42.238;24.684;2022-12-18T09:40:22;100586.53;;;9.58;100.00
28079;BME280;15388;42.238;24.684;2022-12-18T09:42:52;100583.28;;;9.67;100.00
28079;BME280;15388;42.238;24.684;2022-12-18T09:45:19;100595.19;;;9.75;100.00
28079;BME280;15388;42.238;24.684;2022-12-18T09:47:45;100591.66;;;9.74;100.00
28079;BME280;15388;42.238;24.684;2022-12-18T09:50:31;100590.28;;;9.81;100.00
28079;BME280;15388;42.238;24.684;2022-12-18T09:52:59;100583.28;;;9.80;100.00
28079;BME280;15388;42.238;24.684;2022-12-18T09:55:28;100593.81;;;9.82;100.00
28079;BME280;15388;42.238;24.684;2022-12-18T09:57:56;100598.91;;;9.85;100.00
28079;BME280;15388;42.238;24.684;2022-12-18T10:00:26;100595.72;;;9.80;100.00
28079;BME280;15388;42.238;24.684;2022-12-18T10:02:52;100593.59;;;9.85;100.00
28079;BME280;15388;42.238;24.684;2022-12-18T10:09:06;100586.56;;;9.84;100.00
28079;BME280;15388;42.238;24.684;2022-12-18T10:11:01;100598.91;;;9.85;100.00
28079;BME280;15388;42.238;24.684;2022-12-18T10:20:58;100589.97;;;9.86;100.00
28079;BME280;15388;42.238;24.684;2022-12-18T10:26:09;100587.00;;;9.91;100.00
28079;BME280;15388;42.238;24.684;2022-12-18T10:28:38;100582.31;;;9.94;100.00
28079;BME280;15388;42.238;24.684;2022-12-18T10:31:37;100585.31;;;10.03;100.00
28079;BME280;15388;42.238;24.684;2022-12-18T10:33:55;100585.72;;;9.97;100.00
28079;BME280;15388;42.238;24.684;2022-12-18T10:36:22;100592.31;;;10.04;100.00
28079;BME280;15388;42.238;24.684;2022-12-18T10:38:48;100599.22;;;10.06;100.00
28079;BME280;15388;42.238;24.684;2022-12-18T10:43:47;100598.59;;;9.90;100.00
28079;BME280;15388;42.238;24.684;2022-12-18T10:46:16;100602.31;;;9.87;100.00
28079;BME280;15388;42.238;24.684;2022-12-18T10:51:27;100620.19;;;9.85;100.00
28079;BME280;15388;42.238;24.684;2022-12-18T10:53:54;100625.50;;;9.72;100.00
28079;BME280;15388;42.238;24.684;2022-12-18T10:56:21;100623.34;;;9.64;100.00
28079;BME280;15388;42.238;24.684;2022-12-18T10:58:54;100618.63;;;9.55;100.00
28079;BME280;15388;42.238;24.684;2022-12-18T11:01:20;100618.63;;;9.55;100.00
28079;BME280;15388;42.238;24.684;2022-12-18T11:06:21;100635.22;;;9.46;100.00
28079;BME280;15388;42.238;24.684;2022-12-18T11:09:05;100629.81;;;9.47;100.00
28079;BME280;15388;42.238;24.684;2022-12-18T11:11:31;100629.03;;;9.45;100.00
28079;BME280;15388;42.238;24.684;2022-12-18T11:14:03;100623.22;;;9.53;100.00
28079;BME280;15388;42.238;24.684;2022-12-18T11:16:31;100616.94;;;9.54;100.00
28079;BME280;15388;42.238;24.684;2022-12-18T11:21:39;100626.09;;;9.50;100.00
28079;BME280;15388;42.238;24.684;2022-12-18T11:24:04;100624.41;;;9.49;100.00
28079;BME280;15388;42.238;24.684;2022-12-18T11:26:33;100627.97;;;9.48;100.00
28079;BME280;15388;42.238;24.684;2022-12-18T11:29:09;100628.66;;;9.51;100.00
28079;BME280;15388;42.238;24.684;2022-12-18T11:31:34;100624.81;;;9.55;100.00
28079;BME280;15388;42.238;24.684;2022-12-18T11:36:25;100630.78;;;9.59;100.00
28079;BME280;15388;42.238;24.684;2022-12-18T11:38:53;100631.81;;;9.56;100.00
28079;BME280;15388;42.238;24.684;2022-12-18T11:41:21;100638.88;;;9.71;100.00
28079;BME280;15388;42.238;24.684;2022-12-18T11:44:08;100634.50;;;9.69;100.00
28079;BME280;15388;42.238;24.684;2022-12-18T11:46:53;100638.91;;;9.84;100.00
28079;BME280;15388;42.238;24.684;2022-12-18T11:49:22;100636.34;;;9.95;100.00
28079;BME280;15388;42.238;24.684;2022-12-18T11:52:01;100633.03;;;9.91;100.00
28079;BME280;15388;42.238;24.684;2022-12-18T11:54:29;100642.09;;;10.02;100.00
28079;BME280;15388;42.238;24.684;2022-12-18T11:57:07;100647.84;;;10.09;100.00
28079;BME280;15388;42.238;24.684;2022-12-18T12:12:49;100647.16;;;10.44;100.00
28079;BME280;15388;42.238;24.684;2022-12-18T12:23:19;100639.72;;;10.62;100.00
28079;BME280;15388;42.238;24.684;2022-12-18T12:25:52;100644.84;;;10.65;100.00
28079;BME280;15388;42.238;24.684;2022-12-18T12:38:19;100669.75;;;10.38;100.00
28079;BME280;15388;42.238;24.684;2022-12-18T12:40:48;100685.97;;;10.35;100.00
28079;BME280;15388;42.238;24.684;2022-12-18T12:45:45;100691.16;;;10.24;100.00
28079;BME280;15388;42.238;24.684;2022-12-18T12:50:56;100694.00;;;9.94;100.00
28079;BME280;15388;42.238;24.684;2022-12-18T12:53:26;100703.34;;;9.87;100.00
28079;BME280;15388;42.238;24.684;2022-12-18T12:55:54;100708.00;;;9.71;100.00
28079;BME280;15388;42.238;24.684;2022-12-18T12:58:23;100711.59;;;9.69;100.00
28079;BME280;15388;42.238;24.684;2022-12-18T13:01:04;100719.94;;;9.78;100.00
28079;BME280;15388;42.238;24.684;2022-12-18T13:08:58;100726.53;;;9.85;100.00
28079;BME280;15388;42.238;24.684;2022-12-18T13:14:20;100728.34;;;9.85;100.00
28079;BME280;15388;42.238;24.684;2022-12-18T13:16:46;100722.91;;;9.86;100.00
28079;BME280;15388;42.238;24.684;2022-12-18T13:19:20;100721.44;;;9.82;100.00
28079;BME280;15388;42.238;24.684;2022-12-18T13:21:51;100724.81;;;9.84;100.00
28079;BME280;15388;42.238;24.684;2022-12-18T13:24:27;100724.97;;;9.96;100.00
28079;BME280;15388;42.238;24.684;2022-12-18T13:26:53;100724.75;;;9.99;100.00
28079;BME280;15388;42.238;24.684;2022-12-18T13:30:01;100725.50;;;10.01;100.00
28079;BME280;15388;42.238;24.684;2022-12-18T13:32:18;100728.47;;;10.09;100.00
28079;BME280;15388;42.238;24.684;2022-12-18T13:34:45;100731.91;;;10.11;100.00
28079;BME280;15388;42.238;24.684;2022-12-18T13:39:54;100735.66;;;10.22;100.00
28079;BME280;15388;42.238;24.684;2022-12-18T13:47:56;100744.50;;;10.35;100.00
28079;BME280;15388;42.238;24.684;2022-12-18T13:50:28;100746.19;;;10.36;100.00
28079;BME280;15388;42.238;24.684;2022-12-18T13:52:53;100750.03;;;10.32;100.00
28079;BME280;15388;42.238;24.684;2022-12-18T13:55:19;100740.09;;;10.34;100.00
28079;BME280;15388;42.238;24.684;2022-12-18T13:57:45;100749.81;;;10.35;100.00
28079;BME280;15388;42.238;24.684;2022-12-18T14:00:29;100747.03;;;10.37;100.00
28079;BME280;15388;42.238;24.684;2022-12-18T14:02:55;100756.63;;;10.39;100.00
28079;BME280;15388;42.238;24.684;2022-12-18T14:05:31;100750.53;;;10.37;100.00
28079;BME280;15388;42.238;24.684;2022-12-18T14:08:08;100765.03;;;10.33;100.00
28079;BME280;15388;42.238;24.684;2022-12-18T14:10:34;100770.34;;;10.33;100.00
28079;BME280;15388;42.238;24.684;2022-12-18T14:13:03;100775.56;;;10.35;100.00
28079;BME280;15388;42.238;24.684;2022-12-18T14:17:59;100780.22;;;10.31;100.00
28079;BME280;15388;42.238;24.684;2022-12-18T14:20:26;100785.34;;;10.34;100.00